sensor_id;sensor_type;location;lat;lon;timestamp;pressure;altitude;pressure_sealevel;temperature;humidity
34073;BME280;20346;52.702;16.886;2023-04-25T00:03:16;99767.89;;;10.61;62.40
34073;BME280;20346;52.702;16.886;2023-04-25T00:07:03;99769.49;;;10.53;62.39
34073;BME280;20346;52.702;16.886;2023-04-25T00:10:50;99770.39;;;10.47;62.32
34073;BME280;20346;52.702;16.886;2023-04-25T00:14:36;99768.89;;;10.40;62.28
34073;BME280;20346;52.702;16.886;2023-04-25T00:18:23;99772.86;;;10.34;62.37
34073;BME280;20346;52.702;16.886;2023-04-25T00:22:10;99772.11;;;10.30;62.38
34073;BME280;20346;52.702;16.886;2023-04-25T00:25:56;99771.81;;;10.28;62.22
34073;BME280;20346;52.702;16.886;2023-04-25T00:29:43;99770.17;;;10.18;62.23
34073;BME280;20346;52.702;16.886;2023-04-25T00:33:30;99774.78;;;10.13;62.31
34073;BME280;20346;52.702;16.886;2023-04-25T00:37:17;99778.36;;;10.08;62.22
34073;BME280;20346;52.702;16.886;2023-04-25T00:41:04;99778.34;;;10.03;62.23
34073;BME280;20346;52.702;16.886;2023-04-25T00:44:51;99778.31;;;9.97;62.26
34073;BME280;20346;52.702;16.886;2023-04-25T00:48:37;99776.53;;;9.93;62.31
34073;BME280;20346;52.702;16.886;2023-04-25T00:52:23;99780.75;;;9.90;62.32
34073;BME280;20346;52.702;16.886;2023-04-25T00:56:10;99781.17;;;9.87;62.25
34073;BME280;20346;52.702;16.886;2023-04-25T00:59:57;99785.92;;;9.84;62.31
34073;BME280;20346;52.702;16.886;2023-04-25T01:03:44;99788.21;;;9.82;62.30
34073;BME280;20346;52.702;16.886;2023-04-25T01:07:30;99791.26;;;9.77;62.32
34073;BME280;20346;52.702;16.886;2023-04-25T01:11:17;99798.16;;;9.77;62.37
34073;BME280;20346;52.702;16.886;2023-04-25T01:15:05;99793.02;;;9.76;62.39
34073;BME280;20346;52.702;16.886;2023-04-25T01:18:52;99794.23;;;9.75;62.42
34073;BME280;20346;52.702;16.886;2023-04-25T01:22:39;99787.93;;;9.73;62.31
34073;BME280;20346;52.702;16.886;2023-04-25T01:26:25;99788.39;;;9.69;62.32
34073;BME280;20346;52.702;16.886;2023-04-25T01:30:12;99785.89;;;9.65;62.39
34073;BME280;20346;52.702;16.886;2023-04-25T01:33:59;99788.52;;;9.63;62.26
34073;BME280;20346;52.702;16.886;2023-04-25T01:37:46;99795.83;;;9.60;62.42
34073;BME280;20346;52.702;16.886;2023-04-25T01:41:33;99796.21;;;9.58;62.39
34073;BME280;20346;52.702;16.886;2023-04-25T01:45:20;99799.87;;;9.57;62.40
34073;BME280;20346;52.702;16.886;2023-04-25T01:49:06;99798.04;;;9.54;62.39
34073;BME280;20346;52.702;16.886;2023-04-25T01:52:53;99800.11;;;9.54;62.51
34073;BME280;20346;52.702;16.886;2023-04-25T01:56:40;99796.71;;;9.52;62.42
34073;BME280;20346;52.702;16.886;2023-04-25T02:00:26;99797.83;;;9.49;62.49
34073;BME280;20346;52.702;16.886;2023-04-25T02:04:13;99800.58;;;9.49;62.49
34073;BME280;20346;52.702;16.886;2023-04-25T02:08:00;99803.06;;;9.46;62.47
34073;BME280;20346;52.702;16.886;2023-04-25T02:11:46;99811.77;;;9.41;62.51
34073;BME280;20346;52.702;16.886;2023-04-25T02:15:33;99814.45;;;9.37;62.57
34073;BME280;20346;52.702;16.886;2023-04-25T02:19:20;99814.58;;;9.34;62.57
34073;BME280;20346;52.702;16.886;2023-04-25T02:23:07;99814.60;;;9.33;62.63
34073;BME280;20346;52.702;16.886;2023-04-25T02:26:53;99815.10;;;9.33;62.64
34073;BME280;20346;52.702;16.886;2023-04-25T02:30:40;99818.43;;;9.30;62.59
34073;BME280;20346;52.702;16.886;2023-04-25T02:34:27;99818.14;;;9.21;62.65
34073;BME280;20346;52.702;16.886;2023-04-25T02:38:14;99816.36;;;9.16;62.63
34073;BME280;20346;52.702;16.886;2023-04-25T02:42:00;99817.07;;;9.15;62.82
34073;BME280;20346;52.702;16.886;2023-04-25T02:45:47;99818.92;;;9.16;62.76
34073;BME280;20346;52.702;16.886;2023-04-25T02:49:34;99816.52;;;9.16;62.70
34073;BME280;20346;52.702;16.886;2023-04-25T02:53:21;99812.64;;;9.13;62.76
34073;BME280;20346;52.702;16.886;2023-04-25T02:57:07;99808.81;;;9.08;62.81
34073;BME280;20346;52.702;16.886;2023-04-25T03:00:54;99805.08;;;9.06;62.81
34073;BME280;20346;52.702;16.886;2023-04-25T03:04:41;99805.88;;;9.00;62.91
34073;BME280;20346;52.702;16.886;2023-04-25T03:08:28;99802.38;;;8.95;62.81
34073;BME280;20346;52.702;16.886;2023-04-25T03:12:15;99801.80;;;8.91;62.88
34073;BME280;20346;52.702;16.886;2023-04-25T03:16:01;99801.67;;;8.88;62.93
34073;BME280;20346;52.702;16.886;2023-04-25T03:19:48;99802.75;;;8.86;62.88
34073;BME280;20346;52.702;16.886;2023-04-25T03:23:35;99797.92;;;8.81;62.97
34073;BME280;20346;52.702;16.886;2023-04-25T03:27:22;99793.91;;;8.76;62.98
34073;BME280;20346;52.702;16.886;2023-04-25T03:31:08;99792.70;;;8.76;63.05
34073;BME280;20346;52.702;16.886;2023-04-25T03:34:55;99793.62;;;8.73;63.08
34073;BME280;20346;52.702;16.886;2023-04-25T03:38:42;99792.02;;;8.68;63.12
34073;BME280;20346;52.702;16.886;2023-04-25T03:42:29;99792.59;;;8.65;63.01
34073;BME280;20346;52.702;16.886;2023-04-25T03:46:15;99791.81;;;8.61;63.18
34073;BME280;20346;52.702;16.886;2023-04-25T03:50:02;99798.70;;;8.60;63.23
34073;BME280;20346;52.702;16.886;2023-04-25T03:53:49;99802.84;;;8.59;63.20
34073;BME280;20346;52.702;16.886;2023-04-25T03:57:36;99805.77;;;8.59;63.25
34073;BME280;20346;52.702;16.886;2023-04-25T04:01:23;99809.67;;;8.61;63.25
34073;BME280;20346;52.702;16.886;2023-04-25T04:05:09;99808.48;;;8.61;63.38
34073;BME280;20346;52.702;16.886;2023-04-25T04:08:56;99814.64;;;8.62;63.42
34073;BME280;20346;52.702;16.886;2023-04-25T04:12:43;99817.17;;;8.65;63.42
34073;BME280;20346;52.702;16.886;2023-04-25T04:16:30;99817.44;;;8.68;63.50
34073;BME280;20346;52.702;16.886;2023-04-25T04:20:16;99817.38;;;8.71;63.47
34073;BME280;20346;52.702;16.886;2023-04-25T04:24:03;99823.53;;;8.73;63.58
34073;BME280;20346;52.702;16.886;2023-04-25T04:27:50;99822.33;;;8.81;63.66
34073;BME280;20346;52.702;16.886;2023-04-25T04:31:37;99830.16;;;8.90;63.70
34073;BME280;20346;52.702;16.886;2023-04-25T04:35:24;99831.49;;;9.01;63.67
34073;BME280;20346;52.702;16.886;2023-04-25T04:39:13;99834.86;;;9.11;63.72
34073;BME280;20346;52.702;16.886;2023-04-25T04:43:02;99836.57;;;9.27;63.80
34073;BME280;20346;52.702;16.886;2023-04-25T04:46:51;99838.42;;;9.42;63.82
34073;BME280;20346;52.702;16.886;2023-04-25T04:50:38;99840.25;;;9.59;63.86
34073;BME280;20346;52.702;16.886;2023-04-25T04:54:25;99840.04;;;9.75;63.88
34073;BME280;20346;52.702;16.886;2023-04-25T04:58:12;99838.14;;;9.88;63.88
34073;BME280;20346;52.702;16.886;2023-04-25T05:01:59;99834.96;;;10.04;63.87
34073;BME280;20346;52.702;16.886;2023-04-25T05:05:46;99835.35;;;10.15;63.88
34073;BME280;20346;52.702;16.886;2023-04-25T05:09:32;99834.80;;;10.31;63.94
34073;BME280;20346;52.702;16.886;2023-04-25T05:13:19;99839.43;;;10.48;64.02
34073;BME280;20346;52.702;16.886;2023-04-25T05:17:06;99839.19;;;10.70;64.04
34073;BME280;20346;52.702;16.886;2023-04-25T05:20:53;99837.79;;;10.87;63.97
34073;BME280;20346;52.702;16.886;2023-04-25T05:24:39;99841.08;;;11.15;63.97
34073;BME280;20346;52.702;16.886;2023-04-25T05:28:26;99839.27;;;11.60;64.01
34073;BME280;20346;52.702;16.886;2023-04-25T05:32:13;99838.45;;;12.20;63.99
34073;BME280;20346;52.702;16.886;2023-04-25T05:36:00;99843.09;;;12.82;63.87
34073;BME280;20346;52.702;16.886;2023-04-25T05:39:47;99840.10;;;13.33;63.67
34073;BME280;20346;52.702;16.886;2023-04-25T05:43:33;99837.20;;;13.78;63.62
34073;BME280;20346;52.702;16.886;2023-04-25T05:47:20;99837.59;;;14.21;63.29
34073;BME280;20346;52.702;16.886;2023-04-25T05:51:07;99839.96;;;14.73;63.32
34073;BME280;20346;52.702;16.886;2023-04-25T05:54:54;99843.20;;;15.11;62.96
34073;BME280;20346;52.702;16.886;2023-04-25T05:58:40;99848.78;;;15.22;62.51
34073;BME280;20346;52.702;16.886;2023-04-25T06:02:27;99845.39;;;15.13;62.35
34073;BME280;20346;52.702;16.886;2023-04-25T06:06:14;99846.61;;;15.13;62.56
34073;BME280;20346;52.702;16.886;2023-04-25T06:10:01;99848.77;;;15.44;62.25
34073;BME280;20346;52.702;16.886;2023-04-25T06:13:48;99847.05;;;15.79;62.00
34073;BME280;20346;52.702;16.886;2023-04-25T06:17:34;99843.36;;;16.37;62.08
34073;BME280;20346;52.702;16.886;2023-04-25T06:21:21;99850.20;;;16.85;61.93
34073;BME280;20346;52.702;16.886;2023-04-25T06:25:08;99850.95;;;17.16;61.81
34073;BME280;20346;52.702;16.886;2023-04-25T06:28:55;99853.61;;;16.93;61.22
34073;BME280;20346;52.702;16.886;2023-04-25T06:32:42;99855.48;;;16.55;61.14
34073;BME280;20346;52.702;16.886;2023-04-25T06:36:28;99855.05;;;16.00;60.66
34073;BME280;20346;52.702;16.886;2023-04-25T06:40:15;99863.31;;;15.34;60.69
34073;BME280;20346;52.702;16.886;2023-04-25T06:44:02;99858.78;;;14.90;60.37
34073;BME280;20346;52.702;16.886;2023-04-25T06:47:49;99861.16;;;14.49;60.21
34073;BME280;20346;52.702;16.886;2023-04-25T06:51:35;99859.20;;;14.18;60.14
34073;BME280;20346;52.702;16.886;2023-04-25T06:55:22;99863.93;;;13.93;60.12
34073;BME280;20346;52.702;16.886;2023-04-25T06:59:09;99863.16;;;13.74;59.92
34073;BME280;20346;52.702;16.886;2023-04-25T07:02:56;99858.98;;;13.46;59.79
34073;BME280;20346;52.702;16.886;2023-04-25T07:06:43;99866.47;;;13.32;59.74
34073;BME280;20346;52.702;16.886;2023-04-25T07:10:29;99860.59;;;13.17;59.61
34073;BME280;20346;52.702;16.886;2023-04-25T07:14:16;99860.55;;;13.01;59.44
34073;BME280;20346;52.702;16.886;2023-04-25T07:18:03;99859.60;;;12.89;59.42
34073;BME280;20346;52.702;16.886;2023-04-25T07:21:50;99860.83;;;12.84;59.28
34073;BME280;20346;52.702;16.886;2023-04-25T07:25:36;99859.83;;;12.79;59.22
34073;BME280;20346;52.702;16.886;2023-04-25T07:29:23;99863.07;;;12.80;59.19
34073;BME280;20346;52.702;16.886;2023-04-25T07:33:09;99863.36;;;12.77;59.20
34073;BME280;20346;52.702;16.886;2023-04-25T07:36:56;99863.72;;;12.81;59.26
34073;BME280;20346;52.702;16.886;2023-04-25T07:40:43;99865.09;;;12.91;59.21
34073;BME280;20346;52.702;16.886;2023-04-25T07:44:29;99869.39;;;12.96;58.96
34073;BME280;20346;52.702;16.886;2023-04-25T07:48:17;99872.55;;;12.99;58.98
34073;BME280;20346;52.702;16.886;2023-04-25T07:52:03;99872.74;;;13.02;58.96
34073;BME280;20346;52.702;16.886;2023-04-25T07:55:50;99872.25;;;13.06;58.95
34073;BME280;20346;52.702;16.886;2023-04-25T07:59:36;99879.91;;;13.14;58.86
34073;BME280;20346;52.702;16.886;2023-04-25T08:03:23;99878.98;;;13.21;58.79
34073;BME280;20346;52.702;16.886;2023-04-25T08:07:10;99880.10;;;13.28;58.85
34073;BME280;20346;52.702;16.886;2023-04-25T08:10:57;99875.77;;;13.37;58.95
34073;BME280;20346;52.702;16.886;2023-04-25T08:14:44;99877.05;;;13.40;58.70
34073;BME280;20346;52.702;16.886;2023-04-25T08:18:30;99878.83;;;13.51;58.85
34073;BME280;20346;52.702;16.886;2023-04-25T08:22:17;99877.39;;;13.65;58.77
34073;BME280;20346;52.702;16.886;2023-04-25T08:26:04;99878.63;;;13.81;58.66
34073;BME280;20346;52.702;16.886;2023-04-25T08:29:51;99889.70;;;13.99;58.66
34073;BME280;20346;52.702;16.886;2023-04-25T08:33:37;99888.55;;;14.09;58.52
34073;BME280;20346;52.702;16.886;2023-04-25T08:37:24;99886.75;;;14.10;58.43
34073;BME280;20346;52.702;16.886;2023-04-25T08:41:11;99886.14;;;14.08;58.48
34073;BME280;20346;52.702;16.886;2023-04-25T08:44:58;99893.11;;;14.20;58.51
34073;BME280;20346;52.702;16.886;2023-04-25T08:48:45;99887.09;;;14.35;58.33
34073;BME280;20346;52.702;16.886;2023-04-25T08:52:35;99892.83;;;14.43;58.31
34073;BME280;20346;52.702;16.886;2023-04-25T08:56:18;99895.13;;;14.42;58.19
34073;BME280;20346;52.702;16.886;2023-04-25T09:00:05;99900.55;;;14.32;58.15
34073;BME280;20346;52.702;16.886;2023-04-25T09:03:52;99899.35;;;14.16;58.11
34073;BME280;20346;52.702;16.886;2023-04-25T09:07:39;99905.71;;;14.13;58.10
34073;BME280;20346;52.702;16.886;2023-04-25T09:11:26;99912.97;;;14.13;58.04
34073;BME280;20346;52.702;16.886;2023-04-25T09:15:21;99913.26;;;14.19;57.97
34073;BME280;20346;52.702;16.886;2023-04-25T09:19:11;99913.90;;;14.24;57.90
34073;BME280;20346;52.702;16.886;2023-04-25T09:23:04;99910.72;;;14.30;57.85
34073;BME280;20346;52.702;16.886;2023-04-25T09:26:41;99917.31;;;14.34;57.77
34073;BME280;20346;52.702;16.886;2023-04-25T09:30:29;99925.70;;;14.24;57.66
34073;BME280;20346;52.702;16.886;2023-04-25T09:34:20;99925.61;;;14.18;57.67
34073;BME280;20346;52.702;16.886;2023-04-25T09:38:11;99924.15;;;14.19;57.77
34073;BME280;20346;52.702;16.886;2023-04-25T09:41:54;99921.89;;;14.36;57.70
34073;BME280;20346;52.702;16.886;2023-04-25T09:45:41;99920.52;;;14.45;57.50
34073;BME280;20346;52.702;16.886;2023-04-25T09:49:27;99928.43;;;14.37;57.32
34073;BME280;20346;52.702;16.886;2023-04-25T09:53:17;99929.39;;;14.18;57.24
34073;BME280;20346;52.702;16.886;2023-04-25T09:57:11;99935.66;;;13.89;57.16
34073;BME280;20346;52.702;16.886;2023-04-25T10:00:56;99939.15;;;13.63;57.28
34073;BME280;20346;52.702;16.886;2023-04-25T10:04:40;99939.98;;;13.42;57.28
34073;BME280;20346;52.702;16.886;2023-04-25T10:08:31;99940.75;;;13.26;57.18
34073;BME280;20346;52.702;16.886;2023-04-25T10:12:16;99942.33;;;13.21;57.24
34073;BME280;20346;52.702;16.886;2023-04-25T10:16:03;99943.13;;;13.27;57.27
34073;BME280;20346;52.702;16.886;2023-04-25T10:19:50;99941.77;;;13.27;57.21
34073;BME280;20346;52.702;16.886;2023-04-25T10:23:36;99942.70;;;13.30;57.12
34073;BME280;20346;52.702;16.886;2023-04-25T10:27:23;99943.96;;;13.33;57.15
34073;BME280;20346;52.702;16.886;2023-04-25T10:31:22;99944.92;;;13.35;57.01
34073;BME280;20346;52.702;16.886;2023-04-25T10:35:16;99943.77;;;13.38;57.03
34073;BME280;20346;52.702;16.886;2023-04-25T10:39:04;99940.36;;;13.45;57.07
34073;BME280;20346;52.702;16.886;2023-04-25T10:42:54;99947.38;;;13.56;57.00
34073;BME280;20346;52.702;16.886;2023-04-25T10:46:46;99948.08;;;13.73;56.94
34073;BME280;20346;52.702;16.886;2023-04-25T10:50:39;99942.16;;;13.82;56.82
34073;BME280;20346;52.702;16.886;2023-04-25T10:54:25;99944.58;;;13.96;56.91
34073;BME280;20346;52.702;16.886;2023-04-25T10:58:12;99950.59;;;14.05;56.59
34073;BME280;20346;52.702;16.886;2023-04-25T11:02:11;99949.38;;;14.02;56.85
34073;BME280;20346;52.702;16.886;2023-04-25T11:05:51;99949.79;;;14.00;56.70
34073;BME280;20346;52.702;16.886;2023-04-25T11:09:38;99946.95;;;14.05;56.64
34073;BME280;20346;52.702;16.886;2023-04-25T11:13:28;99948.30;;;14.06;56.37
34073;BME280;20346;52.702;16.886;2023-04-25T11:17:17;99945.96;;;14.04;56.49
34073;BME280;20346;52.702;16.886;2023-04-25T11:21:04;99947.56;;;14.07;56.49
34073;BME280;20346;52.702;16.886;2023-04-25T11:24:51;99948.13;;;14.10;56.36
34073;BME280;20346;52.702;16.886;2023-04-25T11:28:37;99944.13;;;14.10;56.18
34073;BME280;20346;52.702;16.886;2023-04-25T11:32:24;99943.42;;;14.15;56.36
34073;BME280;20346;52.702;16.886;2023-04-25T11:36:11;99950.30;;;14.20;56.10
34073;BME280;20346;52.702;16.886;2023-04-25T11:39:58;99953.98;;;14.23;56.19
34073;BME280;20346;52.702;16.886;2023-04-25T11:43:44;99953.97;;;14.28;56.10
34073;BME280;20346;52.702;16.886;2023-04-25T11:47:32;99957.96;;;14.32;55.91
34073;BME280;20346;52.702;16.886;2023-04-25T11:51:18;99956.09;;;14.40;55.91
34073;BME280;20346;52.702;16.886;2023-04-25T11:55:08;99959.23;;;14.52;55.89
34073;BME280;20346;52.702;16.886;2023-04-25T11:59:01;99962.59;;;14.58;55.79
34073;BME280;20346;52.702;16.886;2023-04-25T12:02:51;99959.93;;;14.59;55.72
34073;BME280;20346;52.702;16.886;2023-04-25T12:06:36;99963.48;;;14.57;55.65
34073;BME280;20346;52.702;16.886;2023-04-25T12:10:24;99966.29;;;14.41;55.50
34073;BME280;20346;52.702;16.886;2023-04-25T12:14:26;99969.08;;;14.14;55.60
34073;BME280;20346;52.702;16.886;2023-04-25T12:18:12;99971.19;;;13.89;55.46
34073;BME280;20346;52.702;16.886;2023-04-25T12:22:02;99975.24;;;13.70;55.56
34073;BME280;20346;52.702;16.886;2023-04-25T12:25:55;99981.32;;;13.52;55.57
34073;BME280;20346;52.702;16.886;2023-04-25T12:29:51;99983.23;;;13.42;55.58
34073;BME280;20346;52.702;16.886;2023-04-25T12:33:37;99998.55;;;13.31;55.63
34073;BME280;20346;52.702;16.886;2023-04-25T12:37:24;100000.70;;;13.15;55.68
34073;BME280;20346;52.702;16.886;2023-04-25T12:41:10;100004.84;;;12.96;56.10
34073;BME280;20346;52.702;16.886;2023-04-25T12:44:57;100008.40;;;12.88;56.34
34073;BME280;20346;52.702;16.886;2023-04-25T12:48:44;100004.48;;;12.91;56.51
34073;BME280;20346;52.702;16.886;2023-04-25T12:52:31;100001.61;;;12.99;56.62
34073;BME280;20346;52.702;16.886;2023-04-25T12:56:18;100002.73;;;13.16;56.80
34073;BME280;20346;52.702;16.886;2023-04-25T13:00:04;100000.24;;;13.37;56.72
34073;BME280;20346;52.702;16.886;2023-04-25T13:03:51;99995.65;;;13.57;56.71
34073;BME280;20346;52.702;16.886;2023-04-25T13:07:38;99991.92;;;13.73;56.35
34073;BME280;20346;52.702;16.886;2023-04-25T13:11:25;99986.63;;;13.84;56.50
34073;BME280;20346;52.702;16.886;2023-04-25T13:15:12;99996.87;;;13.97;56.51
34073;BME280;20346;52.702;16.886;2023-04-25T13:18:58;100005.61;;;13.73;56.14
34073;BME280;20346;52.702;16.886;2023-04-25T13:22:45;100010.85;;;13.45;56.32
34073;BME280;20346;52.702;16.886;2023-04-25T13:26:32;100013.79;;;13.22;56.27
34073;BME280;20346;52.702;16.886;2023-04-25T13:30:19;100025.11;;;13.04;56.29
34073;BME280;20346;52.702;16.886;2023-04-25T13:34:06;100035.84;;;12.95;56.23
34073;BME280;20346;52.702;16.886;2023-04-25T13:37:52;100038.06;;;12.81;56.31
34073;BME280;20346;52.702;16.886;2023-04-25T13:41:39;100046.23;;;12.70;56.60
34073;BME280;20346;52.702;16.886;2023-04-25T13:45:26;100045.98;;;12.51;56.57
34073;BME280;20346;52.702;16.886;2023-04-25T13:49:13;100046.94;;;12.39;56.76
34073;BME280;20346;52.702;16.886;2023-04-25T13:52:59;100049.86;;;12.29;56.84
34073;BME280;20346;52.702;16.886;2023-04-25T13:56:46;100049.55;;;12.22;56.92
34073;BME280;20346;52.702;16.886;2023-04-25T14:00:34;100043.15;;;12.11;56.88
34073;BME280;20346;52.702;16.886;2023-04-25T14:04:20;100051.61;;;12.06;56.90
34073;BME280;20346;52.702;16.886;2023-04-25T14:08:07;100054.52;;;12.07;57.05
34073;BME280;20346;52.702;16.886;2023-04-25T14:11:53;100047.13;;;12.11;57.09
34073;BME280;20346;52.702;16.886;2023-04-25T14:15:40;100051.11;;;12.16;57.12
34073;BME280;20346;52.702;16.886;2023-04-25T14:19:27;100053.15;;;12.23;57.19
34073;BME280;20346;52.702;16.886;2023-04-25T14:23:14;100050.66;;;12.36;57.39
34073;BME280;20346;52.702;16.886;2023-04-25T14:27:01;100050.03;;;12.49;57.41
34073;BME280;20346;52.702;16.886;2023-04-25T14:30:47;100051.13;;;12.58;57.54
34073;BME280;20346;52.702;16.886;2023-04-25T14:34:34;100052.39;;;12.66;57.63
34073;BME280;20346;52.702;16.886;2023-04-25T14:38:21;100050.94;;;12.74;57.70
34073;BME280;20346;52.702;16.886;2023-04-25T14:42:08;100050.44;;;12.83;57.69
34073;BME280;20346;52.702;16.886;2023-04-25T14:45:54;100053.76;;;12.87;57.76
34073;BME280;20346;52.702;16.886;2023-04-25T14:49:41;100066.84;;;12.74;57.78
34073;BME280;20346;52.702;16.886;2023-04-25T14:53:28;100069.13;;;12.57;57.71
34073;BME280;20346;52.702;16.886;2023-04-25T14:57:15;100070.79;;;12.44;57.93
34073;BME280;20346;52.702;16.886;2023-04-25T15:01:01;100078.15;;;12.30;57.96
34073;BME280;20346;52.702;16.886;2023-04-25T15:04:48;100082.73;;;12.16;58.03
34073;BME280;20346;52.702;16.886;2023-04-25T15:11:08;100079.00;;;11.93;57.93
34073;BME280;20346;52.702;16.886;2023-04-25T15:14:57;100079.99;;;11.88;58.14
34073;BME280;20346;52.702;16.886;2023-04-25T15:18:45;100084.09;;;11.84;58.14
34073;BME280;20346;52.702;16.886;2023-04-25T15:22:34;100084.11;;;11.83;58.27
34073;BME280;20346;52.702;16.886;2023-04-25T15:26:21;100083.23;;;11.83;58.18
34073;BME280;20346;52.702;16.886;2023-04-25T15:30:08;100082.30;;;11.86;58.16
34073;BME280;20346;52.702;16.886;2023-04-25T15:33:55;100082.94;;;11.94;58.22
34073;BME280;20346;52.702;16.886;2023-04-25T15:37:41;100077.07;;;11.98;57.88
34073;BME280;20346;52.702;16.886;2023-04-25T15:41:28;100078.04;;;12.01;57.89
34073;BME280;20346;52.702;16.886;2023-04-25T15:45:14;100084.30;;;11.99;57.84
34073;BME280;20346;52.702;16.886;2023-04-25T15:49:01;100086.41;;;11.98;57.78
34073;BME280;20346;52.702;16.886;2023-04-25T15:52:48;100083.45;;;11.99;57.73
34073;BME280;20346;52.702;16.886;2023-04-25T15:56:34;100087.92;;;11.99;57.64
34073;BME280;20346;52.702;16.886;2023-04-25T16:00:21;100092.27;;;12.04;57.56
34073;BME280;20346;52.702;16.886;2023-04-25T16:04:07;100095.58;;;12.14;57.54
34073;BME280;20346;52.702;16.886;2023-04-25T16:07:54;100107.07;;;12.23;57.32
34073;BME280;20346;52.702;16.886;2023-04-25T16:11:41;100103.07;;;12.18;57.03
34073;BME280;20346;52.702;16.886;2023-04-25T16:15:29;100107.95;;;12.11;56.79
34073;BME280;20346;52.702;16.886;2023-04-25T22:26:47;100353.16;;;7.08;55.97
